Columbus, Ohio
Traffic Map
Current Weather Conditions
Columbus, Ohio
Clear
Clear
68°
Feels Like: 68°
Wind Chill: 68° Ceiling: Unl
Heat Index: 68° Visibility: 10mi
Dew Point: 61° Wind: 3mph
Humidity: 78% Direction: 10° (N)
Pressure: 30.08in Gusts: 0mph
Raw Report DataKCMH 280651Z 01003KT 10SM CLR 20/16 A3008 RMK AO2 SLP178 T02000161
Traffic Incident Summary
Active as of:
Severity:
Category:
InformationThere was an issue retrieving the traffic information for this location. Please try a different location or try again shortly.
Advertisements
Track Severe Weather on mobile